YBCL weather

Boolcarrol Station Airport
New South Wales, Australia

Public forecast

Using degrees Celsius for public forecast. Weather courtesy of forecast.io.

Closest aviation weather report (METAR) to Boolcarrol Station Airport

Closest report is Narrabri Airport, 26.7 nm (49.5 km) SE. Retrieved 2020/05/26 17:00 UTC (22 minutes ago):

YNBR 261700Z AUTO 16011KT 9999 // NCD 12/08 Q1020

Closest aviation forecast (TAF) to Boolcarrol Station Airport

Closest forecast is Tamworth Airport, 96.5 nm (178.8 km) SE. Retrieved 2020/05/26 12:36 UTC (5 hours ago):

TAF TAF YSTW 261054Z 2612/2706 VRB03KT 9999 SCT050 PROB30 2616/2700 0300 FG BKN001